createdAt,value
2018-10-05T00:01:18.528Z,6.60
2018-10-05T00:03:50.498Z,6.50
2018-10-05T00:06:22.517Z,6.40
2018-10-05T00:08:54.935Z,6.40
2018-10-05T00:11:27.355Z,6.40
2018-10-05T00:13:59.287Z,6.40
2018-10-05T00:16:31.319Z,6.40
2018-10-05T00:19:04.090Z,6.40
2018-10-05T00:21:37.127Z,6.30
2018-10-05T00:24:09.108Z,6.30
2018-10-05T00:26:41.769Z,6.30
2018-10-05T00:29:13.757Z,6.20
2018-10-05T00:31:45.638Z,6.10
2018-10-05T00:34:17.336Z,6.10
2018-10-05T00:36:49.124Z,6.10
2018-10-05T00:39:21.181Z,6.00
2018-10-05T00:41:52.829Z,5.90
2018-10-05T00:44:24.782Z,5.80
2018-10-05T00:46:57.100Z,5.80
2018-10-05T00:49:29.491Z,5.70
2018-10-05T00:52:01.104Z,5.70
2018-10-05T00:54:32.969Z,5.70
2018-10-05T00:57:04.844Z,5.80
2018-10-05T00:59:36.988Z,5.80
2018-10-05T01:02:09.266Z,5.80
2018-10-05T01:04:41.416Z,5.80
2018-10-05T01:07:14.447Z,5.70
2018-10-05T01:09:47.060Z,5.70
2018-10-05T01:12:19.760Z,5.80
2018-10-05T01:14:51.613Z,5.80
2018-10-05T01:17:23.414Z,5.70
2018-10-05T01:19:56.326Z,5.60
2018-10-05T01:22:28.118Z,5.60
2018-10-05T01:25:00.155Z,5.50
2018-10-05T01:27:31.937Z,5.60
2018-10-05T01:30:04.069Z,5.60
2018-10-05T01:32:35.657Z,5.70
2018-10-05T01:35:07.670Z,5.60
2018-10-05T01:37:40.184Z,5.70
2018-10-05T01:40:12.016Z,5.60
2018-10-05T01:42:43.992Z,5.60
2018-10-05T01:45:16.050Z,5.50
2018-10-05T01:47:47.866Z,5.50
2018-10-05T01:50:19.834Z,5.50
2018-10-05T01:52:53.202Z,5.40
2018-10-05T01:55:24.979Z,5.40
2018-10-05T01:57:57.251Z,5.40
2018-10-05T02:00:29.404Z,5.40
2018-10-05T02:03:00.901Z,5.30
2018-10-05T02:05:33.326Z,5.30
2018-10-05T02:08:05.242Z,5.20
2018-10-05T02:10:37.867Z,5.20
2018-10-05T02:13:09.672Z,5.20
2018-10-05T02:15:42.468Z,5.20
2018-10-05T02:18:14.047Z,5.10
2018-10-05T02:20:45.921Z,5.00
2018-10-05T02:23:18.188Z,4.90
2018-10-05T02:28:19.799Z,4.90
2018-10-05T02:30:51.982Z,4.80
2018-10-05T02:33:23.550Z,4.80
2018-10-05T02:35:55.577Z,4.80
2018-10-05T02:38:27.590Z,4.70
2018-10-05T02:40:59.697Z,4.80
2018-10-05T02:43:31.784Z,4.80
2018-10-05T02:46:04.279Z,4.80
2018-10-05T02:48:36.253Z,4.80
2018-10-05T02:51:07.953Z,4.80
2018-10-05T02:53:39.992Z,4.90
2018-10-05T02:56:11.831Z,5.10
2018-10-05T02:58:43.552Z,5.10
2018-10-05T03:02:28.827Z,5.10
2018-10-05T03:05:00.812Z,5.10
2018-10-05T03:07:33.436Z,5.00
2018-10-05T03:10:05.260Z,5.00
2018-10-05T03:12:37.389Z,5.00
2018-10-05T03:15:09.231Z,5.00
2018-10-05T03:17:41.906Z,5.00
2018-10-05T03:20:13.847Z,5.00
2018-10-05T03:22:45.828Z,5.00
2018-10-05T03:25:17.457Z,4.90
2018-10-05T03:27:49.359Z,4.90
2018-10-05T03:30:22.210Z,4.90
2018-10-05T03:32:55.253Z,4.90
2018-10-05T03:35:27.417Z,4.90
2018-10-05T03:38:00.699Z,4.90
2018-10-05T03:40:32.856Z,4.80
2018-10-05T03:43:04.660Z,4.80
2018-10-05T03:45:36.637Z,4.70
2018-10-05T03:48:08.540Z,4.70
2018-10-05T03:50:40.554Z,4.70
2018-10-05T03:53:12.594Z,4.70
2018-10-05T03:55:44.600Z,4.80
2018-10-05T03:58:16.604Z,4.70
2018-10-05T04:00:48.375Z,4.70
2018-10-05T04:03:20.259Z,4.70
2018-10-05T04:05:51.983Z,4.70
2018-10-05T04:08:24.037Z,4.70
2018-10-05T04:10:55.989Z,4.60
2018-10-05T04:13:28.867Z,4.70
2018-10-05T04:16:01.136Z,4.60
2018-10-05T04:18:32.845Z,4.60
2018-10-05T04:21:05.708Z,4.60
2018-10-05T04:23:37.798Z,4.50
2018-10-05T04:26:09.862Z,4.50
2018-10-05T04:28:41.924Z,4.50
2018-10-05T04:31:14.083Z,4.50
2018-10-05T04:33:46.301Z,4.40
2018-10-05T04:36:18.624Z,4.40
2018-10-05T04:38:50.466Z,4.40
2018-10-05T04:41:23.323Z,4.40
2018-10-05T04:43:55.682Z,4.40
2018-10-05T04:46:28.583Z,4.50
2018-10-05T04:49:00.422Z,4.60
2018-10-05T04:51:32.923Z,4.60
2018-10-05T04:54:05.090Z,4.70
2018-10-05T04:56:37.003Z,4.70
2018-10-05T04:59:09.107Z,4.60
2018-10-05T05:01:41.192Z,4.70
2018-10-05T05:04:13.526Z,4.70
2018-10-05T05:06:45.897Z,4.80
2018-10-05T05:09:18.418Z,5.00
2018-10-05T05:11:51.155Z,5.10
2018-10-05T05:14:23.144Z,5.20
2018-10-05T05:16:54.821Z,5.30
2018-10-05T05:19:26.987Z,5.50
2018-10-05T05:21:59.036Z,5.60
2018-10-05T05:24:30.865Z,5.80
2018-10-05T05:27:02.698Z,6.00
2018-10-05T05:29:34.723Z,6.30
2018-10-05T05:32:06.905Z,6.40
2018-10-05T05:34:39.611Z,6.70
2018-10-05T05:37:11.130Z,6.90
2018-10-05T05:39:44.065Z,7.10
2018-10-05T05:42:16.320Z,7.30
2018-10-05T05:44:48.840Z,7.50
2018-10-05T05:47:20.896Z,7.80
2018-10-05T05:49:52.827Z,8.10
2018-10-05T05:52:24.894Z,8.40
2018-10-05T05:54:56.785Z,8.70
2018-10-05T05:57:28.805Z,9.00
2018-10-05T06:00:00.541Z,9.30
2018-10-05T06:02:32.858Z,9.60
2018-10-05T06:05:05.353Z,9.90
2018-10-05T06:07:38.230Z,10.30
2018-10-05T06:10:10.003Z,10.50
2018-10-05T06:12:41.617Z,10.70
2018-10-05T06:15:13.691Z,10.90
2018-10-05T06:17:45.826Z,11.10
2018-10-05T06:20:17.952Z,11.30
2018-10-05T06:22:50.048Z,11.50
2018-10-05T06:25:22.150Z,11.50
2018-10-05T06:27:55.024Z,11.50
2018-10-05T06:30:27.121Z,11.60
2018-10-05T06:32:59.162Z,11.80
2018-10-05T06:35:31.618Z,12.00
2018-10-05T06:38:03.751Z,12.10
2018-10-05T06:40:35.889Z,12.40
2018-10-05T06:43:08.373Z,12.50
2018-10-05T06:45:40.263Z,12.60
2018-10-05T06:48:12.124Z,12.70
2018-10-05T06:50:44.167Z,12.70
2018-10-05T06:53:16.400Z,12.90
2018-10-05T06:55:48.288Z,13.10
2018-10-05T06:58:20.635Z,13.20
2018-10-05T07:00:52.752Z,13.50
2018-10-05T07:03:25.198Z,13.50
2018-10-05T07:05:57.226Z,13.70
2018-10-05T07:08:29.081Z,13.70
2018-10-05T07:11:01.156Z,13.70
2018-10-05T07:13:33.483Z,13.70
2018-10-05T07:16:06.722Z,13.80
2018-10-05T07:18:38.931Z,13.90
2018-10-05T07:21:10.857Z,14.20
2018-10-05T07:23:43.795Z,14.50
2018-10-05T07:26:15.830Z,14.60
2018-10-05T07:28:47.855Z,14.80
2018-10-05T07:31:20.053Z,14.90
2018-10-05T07:58:51.266Z,16.00
2018-10-05T08:01:23.202Z,16.10
2018-10-05T08:03:55.233Z,16.20
2018-10-05T08:06:27.323Z,16.30
2018-10-05T08:08:59.243Z,16.40
2018-10-05T08:11:31.313Z,16.50
2018-10-05T08:14:03.018Z,16.70
2018-10-05T08:16:34.865Z,16.80
2018-10-05T08:19:07.033Z,16.90
2018-10-05T08:21:39.232Z,17.00
2018-10-05T08:24:11.209Z,17.00
2018-10-05T08:26:43.359Z,17.30
2018-10-05T08:29:15.710Z,17.50
2018-10-05T08:31:48.023Z,17.60
2018-10-05T08:34:19.641Z,17.50
2018-10-05T08:36:52.135Z,17.60
2018-10-05T08:39:24.160Z,17.50
2018-10-05T08:41:56.295Z,17.70
2018-10-05T08:44:28.261Z,17.80
2018-10-05T08:47:00.338Z,18.10
2018-10-05T08:49:32.358Z,18.20
2018-10-05T08:52:03.940Z,18.30
2018-10-05T08:54:36.074Z,18.30
2018-10-05T08:57:08.604Z,18.20
2018-10-05T08:59:41.635Z,18.40
2018-10-05T09:02:13.721Z,18.50
2018-10-05T09:04:46.020Z,18.80
2018-10-05T09:07:18.388Z,18.90
2018-10-05T09:09:50.456Z,18.50
2018-10-05T09:12:21.905Z,18.30
2018-10-05T09:14:54.473Z,18.10
2018-10-05T09:17:26.172Z,18.10
2018-10-05T09:19:58.079Z,18.00
2018-10-05T09:22:30.016Z,18.00
2018-10-05T09:25:01.844Z,18.00
2018-10-05T09:27:33.892Z,18.00
2018-10-05T09:30:06.098Z,18.10
2018-10-05T09:32:38.267Z,18.10
2018-10-05T09:35:10.403Z,18.20
2018-10-05T09:37:42.248Z,18.30
2018-10-05T09:40:14.356Z,18.30
2018-10-05T09:42:46.609Z,18.50
2018-10-05T09:45:18.435Z,18.60
2018-10-05T09:47:50.383Z,18.50
2018-10-05T09:50:22.168Z,18.50
2018-10-05T09:52:54.010Z,18.60
2018-10-05T09:55:26.264Z,18.70
2018-10-05T09:57:58.643Z,18.70
2018-10-05T10:01:38.121Z,18.90
2018-10-05T10:04:10.417Z,18.90
2018-10-05T10:06:42.440Z,18.90
2018-10-05T10:09:14.753Z,19.00
2018-10-05T10:11:46.738Z,19.00
2018-10-05T10:14:19.044Z,19.30
2018-10-05T10:16:51.244Z,19.40
2018-10-05T10:22:25.705Z,19.50
2018-10-05T10:24:57.491Z,19.60
2018-10-05T10:27:30.296Z,19.60
2018-10-05T10:30:03.324Z,19.70
2018-10-05T10:32:36.545Z,19.80
2018-10-05T10:35:08.649Z,19.90
2018-10-05T10:37:41.177Z,20.00
2018-10-05T10:40:13.332Z,20.20
2018-10-05T10:42:45.472Z,20.20
2018-10-05T10:45:18.116Z,20.20
2018-10-05T10:47:50.058Z,20.20
2018-10-05T10:50:22.284Z,20.30
2018-10-05T10:52:54.382Z,20.50
2018-10-05T10:55:26.504Z,20.80
2018-10-05T10:57:58.767Z,20.80
2018-10-05T11:00:30.835Z,20.80
2018-10-05T11:03:02.908Z,20.70
2018-10-05T11:05:34.840Z,20.70
2018-10-05T11:08:07.337Z,20.60
2018-10-05T11:10:39.664Z,20.60
2018-10-05T11:13:11.914Z,20.60
2018-10-05T11:15:44.043Z,20.70
2018-10-05T11:18:15.870Z,20.90
2018-10-05T11:20:48.233Z,21.20
2018-10-05T11:23:20.555Z,21.20
2018-10-05T11:25:52.770Z,21.20
2018-10-05T11:28:25.028Z,21.20
2018-10-05T11:30:57.272Z,21.20
2018-10-05T11:33:29.462Z,21.30
2018-10-05T11:36:01.049Z,21.20
2018-10-05T11:38:33.423Z,21.20
2018-10-05T11:41:06.271Z,21.30
2018-10-05T11:43:38.159Z,21.30
2018-10-05T11:46:10.922Z,21.30
2018-10-05T11:48:43.139Z,21.30
2018-10-05T11:51:15.539Z,21.20
2018-10-05T11:53:47.313Z,21.20
2018-10-05T11:56:19.552Z,21.20
2018-10-05T11:58:51.661Z,21.20
2018-10-05T12:01:24.369Z,21.20
2018-10-05T12:03:57.695Z,21.30
2018-10-05T12:06:30.979Z,21.40
2018-10-05T12:09:05.169Z,21.50
2018-10-05T12:11:39.521Z,21.40
2018-10-05T12:14:12.559Z,21.40
2018-10-05T12:16:46.431Z,21.30
2018-10-05T12:19:19.383Z,21.30
2018-10-05T12:21:51.383Z,21.10
2018-10-05T12:24:26.994Z,21.20
2018-10-05T12:27:01.087Z,21.30
2018-10-05T12:29:33.537Z,21.20
2018-10-05T12:32:05.483Z,21.20
2018-10-05T12:34:40.148Z,21.30
2018-10-05T12:37:13.211Z,21.30
2018-10-05T12:39:46.874Z,21.40
2018-10-05T12:42:19.981Z,21.40
2018-10-05T12:44:52.224Z,21.50
2018-10-05T12:47:25.043Z,21.40
2018-10-05T12:49:58.012Z,21.30
2018-10-05T12:52:30.345Z,21.30
2018-10-05T12:55:02.584Z,21.30
2018-10-05T12:57:34.996Z,21.30
2018-10-05T13:00:08.446Z,21.30
2018-10-05T13:02:41.239Z,21.30
2018-10-05T13:05:13.339Z,21.20
2018-10-05T13:07:46.076Z,21.30
2018-10-05T13:10:19.789Z,21.30
2018-10-05T13:12:52.921Z,21.20
2018-10-05T13:15:24.805Z,21.30
2018-10-05T13:17:56.746Z,21.30
2018-10-05T13:20:28.893Z,21.20
2018-10-05T13:23:01.017Z,21.10
2018-10-05T13:25:33.124Z,21.20
2018-10-05T13:28:05.007Z,21.10
2018-10-05T13:30:37.231Z,21.10
2018-10-05T13:33:09.473Z,21.10
2018-10-05T13:35:41.658Z,21.10
2018-10-05T13:38:13.848Z,21.10
2018-10-05T13:40:46.204Z,21.10
2018-10-05T13:43:19.264Z,21.00
2018-10-05T13:45:51.795Z,20.90
2018-10-05T13:48:23.970Z,20.90
2018-10-05T13:50:56.175Z,20.90
2018-10-05T13:53:28.350Z,20.90
2018-10-05T13:56:00.892Z,20.90
2018-10-05T13:58:32.853Z,21.00
2018-10-05T14:01:04.791Z,21.00
2018-10-05T14:03:37.817Z,20.90
2018-10-05T14:06:10.639Z,21.00
2018-10-05T14:08:44.872Z,21.00
2018-10-05T14:11:17.815Z,21.00
2018-10-05T14:13:50.001Z,21.00
2018-10-05T14:16:22.382Z,20.90
2018-10-05T14:18:55.848Z,20.80
2018-10-05T14:21:31.164Z,20.70
2018-10-05T14:24:03.688Z,20.70
2018-10-05T14:26:36.704Z,20.60
2018-10-05T14:29:08.953Z,20.60
2018-10-05T14:31:41.238Z,20.60
2018-10-05T14:34:13.968Z,20.60
2018-10-05T14:36:45.964Z,20.50
2018-10-05T14:39:17.922Z,20.50
2018-10-05T14:41:50.075Z,20.40
2018-10-05T14:44:22.008Z,20.30
2018-10-05T14:46:54.882Z,20.30
2018-10-05T14:49:27.365Z,20.30
2018-10-05T14:51:59.568Z,20.20
2018-10-05T14:54:31.467Z,20.20
2018-10-05T14:57:03.654Z,20.10
2018-10-05T14:59:36.395Z,20.10
2018-10-05T15:02:08.728Z,20.00
2018-10-05T15:04:40.555Z,19.90
2018-10-05T15:07:13.059Z,19.80
2018-10-05T15:09:45.229Z,19.80
2018-10-05T15:12:17.264Z,19.70
2018-10-05T15:14:49.107Z,19.60
2018-10-05T15:17:21.095Z,19.60
2018-10-05T15:19:53.261Z,19.50
2018-10-05T15:22:26.499Z,19.40
2018-10-05T15:24:58.447Z,19.40
2018-10-05T15:27:30.773Z,19.30
2018-10-05T15:30:03.315Z,19.20
2018-10-05T15:32:35.338Z,19.20
2018-10-05T15:35:07.661Z,19.00
2018-10-05T15:37:39.720Z,18.90
2018-10-05T15:40:12.369Z,18.80
2018-10-05T15:42:44.609Z,18.80
2018-10-05T15:45:16.819Z,18.70
2018-10-05T15:47:48.877Z,18.60
2018-10-05T15:50:21.198Z,18.50
2018-10-05T15:52:53.174Z,18.30
2018-10-05T15:55:25.228Z,18.20
2018-10-05T15:57:58.550Z,18.10
2018-10-05T16:00:30.834Z,18.00
2018-10-05T16:03:03.014Z,18.00
2018-10-05T16:05:36.165Z,17.90
2018-10-05T16:08:08.340Z,17.80
2018-10-05T16:10:41.369Z,17.80
2018-10-05T16:13:14.371Z,17.60
2018-10-05T16:15:46.719Z,17.60
2018-10-05T16:18:19.012Z,17.50
2018-10-05T16:20:51.306Z,17.30
2018-10-05T16:23:23.868Z,17.20
2018-10-05T16:25:56.113Z,17.10
2018-10-05T16:28:29.255Z,17.00
2018-10-05T16:31:01.818Z,17.00
2018-10-05T16:33:34.084Z,16.90
2018-10-05T16:36:07.844Z,16.80
2018-10-05T16:38:40.123Z,16.70
2018-10-05T16:41:12.364Z,16.60
2018-10-05T16:43:45.573Z,16.50
2018-10-05T16:46:18.542Z,16.40
2018-10-05T16:48:50.787Z,16.20
2018-10-05T16:51:23.328Z,16.20
2018-10-05T16:53:55.661Z,16.10
2018-10-05T16:56:28.124Z,16.00
2018-10-05T16:59:00.192Z,15.90
2018-10-05T17:01:33.365Z,15.70
2018-10-05T17:04:05.714Z,15.70
2018-10-05T17:06:37.916Z,15.50
2018-10-05T17:09:11.825Z,15.40
2018-10-05T17:11:44.905Z,15.30
2018-10-05T17:14:17.051Z,15.20
2018-10-05T17:16:49.177Z,15.10
2018-10-05T17:19:22.541Z,15.00
2018-10-05T17:21:54.927Z,14.90
2018-10-05T17:24:27.291Z,14.80
2018-10-05T17:27:00.493Z,14.60
2018-10-05T17:29:32.882Z,14.60
2018-10-05T17:32:04.631Z,14.50
2018-10-05T17:34:36.741Z,14.40
2018-10-05T17:37:10.828Z,14.30
2018-10-05T17:39:43.091Z,14.10
2018-10-05T17:42:17.258Z,14.10
2018-10-05T17:44:49.109Z,14.00
2018-10-05T17:47:20.816Z,14.00
2018-10-05T17:49:54.357Z,13.90
2018-10-05T17:52:26.478Z,13.80
2018-10-05T17:55:02.550Z,13.70
2018-10-05T17:57:35.582Z,13.60
2018-10-05T18:00:08.285Z,13.60
2018-10-05T18:02:40.314Z,13.60
2018-10-05T18:05:13.078Z,13.60
2018-10-05T18:07:45.117Z,13.50
2018-10-05T18:10:17.236Z,13.50
2018-10-05T18:12:49.222Z,13.50
2018-10-05T18:15:21.527Z,13.40
2018-10-05T18:17:53.989Z,13.40
2018-10-05T18:20:26.583Z,13.20
2018-10-05T18:22:58.574Z,13.20
2018-10-05T18:25:31.695Z,13.10
2018-10-05T18:28:05.110Z,13.00
2018-10-05T18:30:37.774Z,13.00
2018-10-05T18:33:10.355Z,13.00
2018-10-05T18:35:44.886Z,12.90
2018-10-05T18:38:16.961Z,12.80
2018-10-05T18:40:49.071Z,12.70
2018-10-05T18:43:21.510Z,12.60
2018-10-05T18:45:53.664Z,12.50
2018-10-05T18:48:26.070Z,12.40
2018-10-05T18:50:58.628Z,12.40
2018-10-05T18:53:30.756Z,12.40
2018-10-05T18:56:19.244Z,12.40
2018-10-05T18:58:52.026Z,12.30
2018-10-05T19:01:25.635Z,12.30
2018-10-05T19:03:57.826Z,12.20
2018-10-05T19:06:30.221Z,12.10
2018-10-05T19:09:02.645Z,12.00
2018-10-05T19:11:35.031Z,11.90
2018-10-05T19:14:07.957Z,11.80
2018-10-05T19:16:40.287Z,11.60
2018-10-05T19:19:13.248Z,11.50
2018-10-05T19:21:45.406Z,11.50
2018-10-05T19:24:17.581Z,11.50
2018-10-05T19:26:49.978Z,11.40
2018-10-05T19:29:22.412Z,11.30
2018-10-05T19:31:54.222Z,11.30
2018-10-05T19:34:26.609Z,11.20
2018-10-05T19:36:58.772Z,11.20
2018-10-05T19:39:30.753Z,11.10
2018-10-05T19:42:03.224Z,11.00
2018-10-05T19:44:35.374Z,11.00
2018-10-05T19:47:07.587Z,10.80
2018-10-05T19:49:40.559Z,10.80
2018-10-05T19:52:13.085Z,10.80
2018-10-05T19:54:45.563Z,10.80
2018-10-05T19:57:17.754Z,10.80
2018-10-05T19:59:49.844Z,10.80
2018-10-05T20:02:21.911Z,10.70
2018-10-05T20:04:54.056Z,10.70
2018-10-05T20:07:26.514Z,10.60
2018-10-05T20:09:58.705Z,10.50
2018-10-05T20:12:30.977Z,10.40
2018-10-05T20:15:03.569Z,10.30
2018-10-05T20:17:35.473Z,10.10
2018-10-05T20:20:07.785Z,10.10
2018-10-05T20:22:40.061Z,10.10
2018-10-05T20:25:12.506Z,10.10
2018-10-05T20:27:44.546Z,10.00
2018-10-05T20:30:17.248Z,9.90
2018-10-05T20:32:50.289Z,9.80
2018-10-05T20:35:23.090Z,9.80
2018-10-05T20:37:56.542Z,9.80
2018-10-05T20:40:28.510Z,9.80
2018-10-05T20:43:01.006Z,9.70
2018-10-05T20:45:33.108Z,9.60
2018-10-05T20:48:05.025Z,9.50
2018-10-05T20:50:37.015Z,9.60
2018-10-05T20:53:08.893Z,9.50
2018-10-05T20:55:40.826Z,9.50
2018-10-05T20:58:12.908Z,9.50
2018-10-05T21:00:45.910Z,9.40
2018-10-05T21:03:17.775Z,9.40
2018-10-05T21:05:49.889Z,9.40
2018-10-05T21:08:22.167Z,9.40
2018-10-05T21:10:54.385Z,9.40
2018-10-05T21:13:26.750Z,9.40
2018-10-05T21:15:58.745Z,9.40
2018-10-05T21:18:30.740Z,9.40
2018-10-05T21:21:03.067Z,9.30
2018-10-05T21:23:36.220Z,9.40
2018-10-05T21:26:08.666Z,9.40
2018-10-05T21:28:41.008Z,9.30
2018-10-05T21:31:14.405Z,9.30
2018-10-05T21:33:46.574Z,9.30
2018-10-05T21:36:18.950Z,9.20
2018-10-05T21:38:51.045Z,9.20
2018-10-05T21:41:23.203Z,9.10
2018-10-05T21:43:55.043Z,9.00
2018-10-05T21:46:26.898Z,9.00
2018-10-05T21:48:58.878Z,9.00
2018-10-05T21:51:31.319Z,8.90
2018-10-05T21:54:04.047Z,8.90
2018-10-05T21:56:36.195Z,9.00
2018-10-05T21:59:08.477Z,8.90
2018-10-05T22:01:40.150Z,8.90
2018-10-05T22:04:12.053Z,8.90
2018-10-05T22:06:43.962Z,8.80
2018-10-05T22:09:16.159Z,8.80
2018-10-05T22:11:48.188Z,8.80
2018-10-05T22:14:20.189Z,8.70
2018-10-05T22:16:52.126Z,8.70
2018-10-05T22:19:24.460Z,8.70
2018-10-05T22:21:56.550Z,8.70
2018-10-05T22:24:28.453Z,8.70
2018-10-05T22:27:00.963Z,8.60
2018-10-05T22:29:33.175Z,8.60
2018-10-05T22:32:06.162Z,8.60
2018-10-05T22:34:38.069Z,8.60
2018-10-05T22:37:10.050Z,8.60
2018-10-05T22:39:42.461Z,8.50
2018-10-05T22:42:14.956Z,8.50
2018-10-05T22:44:47.261Z,8.50
2018-10-05T22:47:20.949Z,8.50
2018-10-05T22:49:53.030Z,8.50
2018-10-05T22:52:25.362Z,8.50
2018-10-05T22:54:57.283Z,8.50
2018-10-05T22:57:29.256Z,8.50
2018-10-05T23:00:01.417Z,8.40
2018-10-05T23:02:33.526Z,8.40
2018-10-05T23:05:06.088Z,8.40
2018-10-05T23:07:38.495Z,8.30
2018-10-05T23:10:10.650Z,8.30
2018-10-05T23:12:42.689Z,8.20
2018-10-05T23:15:15.516Z,8.20
2018-10-05T23:17:48.089Z,8.20
2018-10-05T23:20:20.043Z,8.20
2018-10-05T23:22:52.481Z,8.10
2018-10-05T23:25:24.702Z,8.10
2018-10-05T23:27:56.520Z,8.10
2018-10-05T23:30:29.014Z,8.10
2018-10-05T23:33:01.557Z,8.10
2018-10-05T23:35:33.932Z,8.10
2018-10-05T23:38:06.483Z,8.10
2018-10-05T23:40:38.707Z,8.10
2018-10-05T23:43:10.965Z,8.20
2018-10-05T23:45:43.450Z,8.10
2018-10-05T23:48:16.485Z,8.00
2018-10-05T23:50:48.712Z,8.00
2018-10-05T23:53:20.786Z,7.90
2018-10-05T23:55:52.891Z,7.90
2018-10-05T23:58:25.984Z,7.80
